createdAt,value
2024-01-30T00:01:18.970Z,7.60
2024-01-30T00:03:45.804Z,5.20
2024-01-30T00:06:13.252Z,6.33
2024-01-30T00:08:39.966Z,6.30
2024-01-30T00:11:08.803Z,11.00
2024-01-30T00:13:35.466Z,5.23
2024-01-30T00:16:02.253Z,7.60
2024-01-30T00:18:29.025Z,9.50
2024-01-30T00:20:55.759Z,4.60
2024-01-30T00:23:22.495Z,13.07
2024-01-30T00:25:49.139Z,8.30
2024-01-30T00:28:16.091Z,7.80
2024-01-30T00:30:42.852Z,6.13
2024-01-30T00:33:10.560Z,6.00
2024-01-30T00:35:37.745Z,7.50
2024-01-30T00:38:04.631Z,9.73
2024-01-30T00:40:31.365Z,12.70
2024-01-30T00:42:58.134Z,14.20
2024-01-30T00:45:24.912Z,18.03
2024-01-30T00:47:51.631Z,12.60
2024-01-30T00:50:18.408Z,8.80
2024-01-30T00:52:46.420Z,8.30
2024-01-30T00:55:14.061Z,7.87
2024-01-30T00:57:42.816Z,9.77
2024-01-30T01:00:12.206Z,7.73
2024-01-30T01:02:40.257Z,13.10
2024-01-30T01:05:07.437Z,10.67
2024-01-30T01:07:34.158Z,7.50
2024-01-30T01:10:00.933Z,8.80
2024-01-30T01:12:27.668Z,7.67
2024-01-30T01:14:54.390Z,7.60
2024-01-30T01:17:21.170Z,9.13
2024-01-30T01:19:48.028Z,12.33
2024-01-30T01:22:14.784Z,11.30
2024-01-30T01:24:41.505Z,9.87
2024-01-30T01:27:08.272Z,8.90
2024-01-30T01:29:34.927Z,6.23
2024-01-30T01:32:01.759Z,7.13
2024-01-30T01:34:30.563Z,6.73
2024-01-30T01:36:57.845Z,8.07
2024-01-30T01:39:24.959Z,8.70
2024-01-30T01:41:51.710Z,11.80
2024-01-30T01:44:19.644Z,6.70
2024-01-30T01:46:46.984Z,7.80
2024-01-30T01:49:15.032Z,9.57
2024-01-30T01:51:43.350Z,6.20
2024-01-30T01:54:10.205Z,8.77
2024-01-30T01:56:37.062Z,5.43
2024-01-30T01:59:09.303Z,8.60
2024-01-30T02:01:39.709Z,9.07
2024-01-30T02:04:08.862Z,7.90
2024-01-30T02:06:36.599Z,6.90
2024-01-30T02:09:03.300Z,9.67
2024-01-30T02:11:30.120Z,8.00
2024-01-30T02:13:56.901Z,7.00
2024-01-30T02:16:23.941Z,9.07
2024-01-30T02:18:50.705Z,11.30
2024-01-30T02:21:20.369Z,8.30
2024-01-30T02:23:51.430Z,9.53
2024-01-30T02:26:18.127Z,8.63
2024-01-30T02:28:44.763Z,7.50
2024-01-30T02:31:11.552Z,9.53
2024-01-30T02:33:38.302Z,12.40
2024-01-30T02:36:05.309Z,9.50
2024-01-30T02:38:31.995Z,12.23
2024-01-30T02:40:58.720Z,10.60
2024-01-30T02:43:25.389Z,9.87
2024-01-30T02:45:52.173Z,9.23
2024-01-30T02:48:18.885Z,9.10
2024-01-30T02:50:45.651Z,8.80
2024-01-30T02:53:12.422Z,8.30
2024-01-30T02:55:39.320Z,13.80
2024-01-30T02:58:06.063Z,8.20
2024-01-30T03:00:32.777Z,7.43
2024-01-30T03:02:59.485Z,13.23
2024-01-30T03:05:26.177Z,7.93
2024-01-30T03:07:53.033Z,10.67
2024-01-30T03:10:19.985Z,9.13
2024-01-30T03:12:46.731Z,7.73
2024-01-30T03:15:13.948Z,11.40
2024-01-30T03:17:40.699Z,7.93
2024-01-30T03:20:08.048Z,9.67
2024-01-30T03:22:34.735Z,7.43
2024-01-30T03:25:01.898Z,9.37
2024-01-30T03:27:28.787Z,8.97
2024-01-30T03:29:55.481Z,13.10
2024-01-30T03:32:22.418Z,8.30
2024-01-30T03:34:49.488Z,10.73
2024-01-30T03:37:16.293Z,10.73
2024-01-30T03:39:43.134Z,9.07
2024-01-30T03:42:09.827Z,7.70
2024-01-30T03:44:36.550Z,9.87
2024-01-30T03:47:03.311Z,11.40
2024-01-30T03:49:30.117Z,14.70
2024-01-30T03:51:57.104Z,7.80
2024-01-30T03:54:23.972Z,9.80
2024-01-30T03:56:50.853Z,11.60
2024-01-30T03:59:18.958Z,11.23
2024-01-30T04:01:48.133Z,9.03
2024-01-30T04:04:15.355Z,8.90
2024-01-30T04:06:42.385Z,9.07
2024-01-30T04:09:09.201Z,12.37
2024-01-30T04:11:36.430Z,8.60
2024-01-30T04:14:03.420Z,11.53
2024-01-30T04:16:30.143Z,14.50
2024-01-30T04:18:57.515Z,9.03
2024-01-30T04:21:24.356Z,11.27
2024-01-30T04:23:52.915Z,9.33
2024-01-30T04:26:19.846Z,7.27
2024-01-30T04:28:46.849Z,9.57
2024-01-30T04:31:13.685Z,10.77
2024-01-30T04:33:40.716Z,9.70
2024-01-30T04:36:11.281Z,10.70
2024-01-30T04:38:40.153Z,8.50
2024-01-30T04:41:07.079Z,12.90
2024-01-30T04:43:34.286Z,8.60
2024-01-30T04:46:01.240Z,9.87
2024-01-30T04:48:28.278Z,12.40
2024-01-30T04:50:57.326Z,18.23
2024-01-30T04:53:24.292Z,22.10
2024-01-30T04:55:51.374Z,13.93
2024-01-30T04:58:18.426Z,12.90
2024-01-30T05:00:45.453Z,26.83
2024-01-30T05:03:12.525Z,9.70
2024-01-30T05:05:39.533Z,11.43
2024-01-30T05:08:06.639Z,12.93
2024-01-30T05:10:33.474Z,14.83
2024-01-30T05:13:00.349Z,11.43
2024-01-30T05:15:27.668Z,17.17
2024-01-30T05:17:54.592Z,16.77
2024-01-30T05:20:22.032Z,14.37
2024-01-30T05:22:49.004Z,11.63
2024-01-30T05:25:16.338Z,13.33
2024-01-30T05:27:43.406Z,15.47
2024-01-30T05:30:10.896Z,14.93
2024-01-30T05:32:38.107Z,14.13
2024-01-30T05:35:05.403Z,9.93
2024-01-30T05:37:32.257Z,19.87
2024-01-30T05:39:59.355Z,14.47
2024-01-30T05:42:27.340Z,13.03
2024-01-30T05:44:54.465Z,14.90
2024-01-30T05:47:21.566Z,13.30
2024-01-30T05:49:48.693Z,17.43
2024-01-30T05:52:16.800Z,15.50
2024-01-30T05:54:44.011Z,15.13
2024-01-30T05:57:10.985Z,15.40
2024-01-30T05:59:41.827Z,12.93
2024-01-30T06:02:09.518Z,15.20
2024-01-30T06:04:36.818Z,14.07
2024-01-30T06:07:04.264Z,19.53
2024-01-30T06:09:31.446Z,13.60
2024-01-30T06:11:58.803Z,16.43
2024-01-30T06:14:25.976Z,16.03
2024-01-30T06:16:53.257Z,18.63
2024-01-30T06:19:20.773Z,14.73
2024-01-30T06:21:47.889Z,14.90
2024-01-30T06:24:14.968Z,14.50
2024-01-30T06:26:42.339Z,12.30
2024-01-30T06:29:09.651Z,14.53
2024-01-30T06:31:45.560Z,11.73
2024-01-30T06:34:13.504Z,14.40
2024-01-30T06:36:40.497Z,15.27
2024-01-30T06:39:08.399Z,13.00
2024-01-30T06:41:35.732Z,18.17
2024-01-30T06:44:07.545Z,11.37
2024-01-30T06:46:34.711Z,12.30
2024-01-30T06:49:01.822Z,16.37
2024-01-30T06:51:28.790Z,12.43
2024-01-30T06:53:55.682Z,17.47
2024-01-30T06:56:22.676Z,13.80
2024-01-30T06:58:50.217Z,14.90
2024-01-30T07:01:18.088Z,16.57
2024-01-30T07:03:45.163Z,15.50
2024-01-30T07:06:12.210Z,13.70
2024-01-30T07:08:42.310Z,13.00
2024-01-30T07:11:09.344Z,18.00
2024-01-30T07:13:36.592Z,18.00
2024-01-30T07:16:03.811Z,19.57
2024-01-30T07:18:30.889Z,15.03
2024-01-30T07:20:57.943Z,23.87
2024-01-30T07:23:25.220Z,22.17
2024-01-30T07:25:52.240Z,17.73
2024-01-30T07:28:20.108Z,15.93
2024-01-30T07:30:49.423Z,17.90
2024-01-30T07:33:16.969Z,17.27
2024-01-30T07:35:44.784Z,19.43
2024-01-30T07:38:11.868Z,17.77
2024-01-30T07:40:39.264Z,18.50
2024-01-30T07:43:06.522Z,15.20
2024-01-30T07:45:36.499Z,12.37
2024-01-30T07:48:04.094Z,18.47
2024-01-30T07:50:31.358Z,10.57
2024-01-30T07:52:58.366Z,13.43
2024-01-30T07:55:28.859Z,12.13
2024-01-30T07:57:56.934Z,17.57
2024-01-30T08:00:24.297Z,10.10
2024-01-30T08:02:51.474Z,14.83
2024-01-30T08:05:18.632Z,17.30
2024-01-30T08:07:47.441Z,12.60
2024-01-30T08:10:14.800Z,14.33
2024-01-30T08:12:42.228Z,15.30
2024-01-30T08:15:09.759Z,17.83
2024-01-30T08:17:37.061Z,14.90
2024-01-30T08:20:05.968Z,12.57
2024-01-30T08:22:33.449Z,14.77
2024-01-30T08:25:03.363Z,12.70
2024-01-30T08:27:30.547Z,11.50
2024-01-30T08:29:57.957Z,25.03
2024-01-30T08:32:25.151Z,14.10
2024-01-30T08:34:52.652Z,14.50
2024-01-30T08:37:20.084Z,20.03
2024-01-30T08:39:47.586Z,13.07
2024-01-30T08:42:14.967Z,15.47
2024-01-30T08:44:42.057Z,10.10
2024-01-30T08:47:09.072Z,15.20
2024-01-30T08:49:36.247Z,12.53
2024-01-30T08:52:04.461Z,12.10
2024-01-30T08:54:31.486Z,13.40
2024-01-30T08:56:59.860Z,12.57
2024-01-30T08:59:26.955Z,11.50
2024-01-30T09:02:03.807Z,12.20
2024-01-30T09:04:39.142Z,13.50
2024-01-30T09:07:10.306Z,15.43
2024-01-30T09:09:40.758Z,18.37
2024-01-30T09:12:10.661Z,14.87
2024-01-30T09:14:39.095Z,14.43
2024-01-30T09:17:06.159Z,12.73
2024-01-30T09:19:33.721Z,11.17
2024-01-30T09:22:01.418Z,12.57
2024-01-30T09:24:29.020Z,17.23
2024-01-30T09:26:56.541Z,10.90
2024-01-30T09:29:23.825Z,11.60
2024-01-30T09:31:50.868Z,10.23
2024-01-30T09:34:18.122Z,10.80
2024-01-30T09:36:45.885Z,13.87
2024-01-30T09:39:13.211Z,13.30
2024-01-30T09:41:49.698Z,8.83
2024-01-30T09:44:22.164Z,17.40
2024-01-30T09:46:50.025Z,13.10
2024-01-30T09:49:21.171Z,12.63
2024-01-30T09:54:50.715Z,8.20
2024-01-30T09:57:17.524Z,11.73
2024-01-30T09:59:45.147Z,12.70
2024-01-30T10:02:11.968Z,13.93
2024-01-30T10:04:38.673Z,10.53
2024-01-30T10:07:05.709Z,12.20
2024-01-30T10:09:35.881Z,9.63
2024-01-30T10:12:04.813Z,9.63
2024-01-30T10:14:31.655Z,14.13
2024-01-30T10:16:59.184Z,11.40
2024-01-30T10:19:26.294Z,8.03
2024-01-30T10:21:53.121Z,9.17
2024-01-30T10:24:19.872Z,9.60
2024-01-30T10:26:46.551Z,14.33
2024-01-30T10:29:13.507Z,11.20
2024-01-30T10:31:40.484Z,10.03
2024-01-30T10:34:12.516Z,11.13
2024-01-30T10:36:51.261Z,9.20
2024-01-30T10:39:19.133Z,13.13
2024-01-30T10:41:49.688Z,11.30
2024-01-30T10:44:20.671Z,11.80
2024-01-30T10:46:54.544Z,10.33
2024-01-30T10:49:22.847Z,10.20
2024-01-30T10:51:50.935Z,13.90
2024-01-30T10:54:19.031Z,9.47
2024-01-30T10:56:45.879Z,10.20
2024-01-30T10:59:14.327Z,15.13
2024-01-30T11:01:42.114Z,11.13
2024-01-30T11:04:09.068Z,8.40
2024-01-30T11:06:43.201Z,10.83
2024-01-30T11:09:13.681Z,10.43
2024-01-30T11:11:50.330Z,12.43
2024-01-30T11:14:17.169Z,7.40
2024-01-30T11:16:45.973Z,9.47
2024-01-30T11:19:13.553Z,10.43
2024-01-30T11:21:42.900Z,8.63
2024-01-30T11:24:09.713Z,10.03
2024-01-30T11:26:36.609Z,10.90
2024-01-30T11:29:09.204Z,13.07
2024-01-30T11:31:36.037Z,10.50
2024-01-30T11:34:02.857Z,11.80
2024-01-30T11:36:30.278Z,9.47
2024-01-30T11:38:57.594Z,7.43
2024-01-30T11:41:24.688Z,11.23
2024-01-30T11:43:54.813Z,7.80
2024-01-30T11:46:21.973Z,10.50
2024-01-30T11:48:48.898Z,9.63
2024-01-30T11:51:16.033Z,13.03
2024-01-30T11:53:43.030Z,14.73
2024-01-30T11:56:09.915Z,10.37
2024-01-30T11:58:36.609Z,9.73
2024-01-30T12:01:03.402Z,9.00
2024-01-30T12:03:30.179Z,9.70
2024-01-30T12:06:00.718Z,9.70
2024-01-30T12:08:28.602Z,11.50
2024-01-30T12:11:06.536Z,7.73
2024-01-30T12:13:33.980Z,9.97
2024-01-30T12:16:02.287Z,8.10
2024-01-30T12:18:29.266Z,9.30
2024-01-30T12:21:00.959Z,7.03
2024-01-30T12:23:30.936Z,16.07
2024-01-30T12:25:58.304Z,8.10
2024-01-30T12:28:25.066Z,10.33
2024-01-30T12:30:55.303Z,9.47
2024-01-30T12:33:22.336Z,9.50
2024-01-30T12:35:55.850Z,6.77
2024-01-30T12:38:29.415Z,7.23
2024-01-30T12:40:57.240Z,6.43
2024-01-30T12:43:34.585Z,9.33
2024-01-30T12:46:05.376Z,7.73
2024-01-30T12:48:32.222Z,8.33
2024-01-30T12:50:59.078Z,8.73
2024-01-30T12:53:25.845Z,10.07
2024-01-30T12:55:52.616Z,8.60
2024-01-30T12:58:19.679Z,7.27
2024-01-30T13:00:46.544Z,7.33
2024-01-30T13:03:13.714Z,8.53
2024-01-30T13:05:40.410Z,6.87
2024-01-30T13:08:07.322Z,7.40
2024-01-30T13:10:34.090Z,8.20
2024-01-30T13:13:00.934Z,9.13
2024-01-30T13:15:27.699Z,6.90
2024-01-30T13:17:55.599Z,8.43
2024-01-30T13:20:23.037Z,10.93
2024-01-30T13:22:50.953Z,9.83
2024-01-30T13:25:18.021Z,6.43
2024-01-30T13:27:44.804Z,8.47
2024-01-30T13:30:11.973Z,8.27
2024-01-30T13:32:39.108Z,8.40
2024-01-30T13:35:06.214Z,7.67
2024-01-30T13:37:33.104Z,9.90
2024-01-30T13:40:00.592Z,9.70
2024-01-30T13:42:28.591Z,8.40
2024-01-30T13:44:55.484Z,9.17
2024-01-30T13:47:22.770Z,7.57
2024-01-30T13:49:49.832Z,9.00
2024-01-30T13:52:16.723Z,8.87
2024-01-30T13:54:43.466Z,8.47
2024-01-30T13:57:11.204Z,6.17
2024-01-30T13:59:39.761Z,9.40
2024-01-30T14:02:07.994Z,9.00
2024-01-30T14:04:34.859Z,8.93
2024-01-30T14:07:05.284Z,10.00
2024-01-30T14:09:33.613Z,6.33
2024-01-30T14:12:00.513Z,7.57
2024-01-30T14:14:27.423Z,6.20
2024-01-30T14:16:54.155Z,8.03
2024-01-30T14:19:20.902Z,11.53
2024-01-30T14:21:47.620Z,10.47
2024-01-30T14:24:14.384Z,7.03
2024-01-30T14:26:41.090Z,7.80
2024-01-30T14:29:08.204Z,5.87
2024-01-30T14:31:34.916Z,7.70
2024-01-30T14:34:02.004Z,8.63
2024-01-30T14:36:29.481Z,5.83
2024-01-30T14:38:56.564Z,11.60
2024-01-30T14:41:23.557Z,9.10
2024-01-30T14:43:50.839Z,7.40
2024-01-30T14:46:17.772Z,7.67
2024-01-30T14:48:44.897Z,14.47
2024-01-30T14:51:11.717Z,8.77
2024-01-30T14:53:38.378Z,7.30
2024-01-30T14:56:05.802Z,10.40
2024-01-30T14:58:33.079Z,6.10
2024-01-30T15:00:59.936Z,8.93
2024-01-30T15:03:29.809Z,10.60
2024-01-30T15:05:56.816Z,13.10
2024-01-30T15:08:23.907Z,11.87
2024-01-30T15:10:52.216Z,6.33
2024-01-30T15:13:19.040Z,7.93
2024-01-30T15:15:45.857Z,6.83
2024-01-30T15:18:12.777Z,9.80
2024-01-30T15:20:39.695Z,7.17
2024-01-30T15:23:06.403Z,8.60
2024-01-30T15:25:33.190Z,9.20
2024-01-30T15:28:00.016Z,12.37
2024-01-30T15:30:26.951Z,13.03
2024-01-30T15:32:54.063Z,12.83
2024-01-30T15:35:20.869Z,9.30
2024-01-30T15:37:47.937Z,10.87
2024-01-30T15:40:14.785Z,7.00
2024-01-30T15:42:41.558Z,11.97
2024-01-30T15:45:08.673Z,9.10
2024-01-30T15:47:35.705Z,10.90
2024-01-30T15:50:02.749Z,11.10
2024-01-30T15:52:29.962Z,17.80
2024-01-30T15:54:57.146Z,10.87
2024-01-30T15:57:26.339Z,9.73
2024-01-30T15:59:53.779Z,10.87
2024-01-30T16:02:21.722Z,10.60
2024-01-30T16:04:48.722Z,9.50
2024-01-30T16:07:15.629Z,12.83
2024-01-30T16:09:43.241Z,9.20
2024-01-30T16:12:10.047Z,9.30
2024-01-30T16:14:37.515Z,14.40
2024-01-30T16:17:04.788Z,7.70
2024-01-30T16:19:33.744Z,10.77
2024-01-30T16:22:01.871Z,11.57
2024-01-30T16:24:28.756Z,13.27
2024-01-30T16:27:14.393Z,11.03
2024-01-30T16:29:42.388Z,9.00
2024-01-30T16:32:09.108Z,8.03
2024-01-30T16:34:36.019Z,13.20
2024-01-30T16:37:02.990Z,10.03
2024-01-30T16:39:30.033Z,8.63
2024-01-30T16:41:57.022Z,7.83
2024-01-30T16:44:23.727Z,8.03
2024-01-30T16:46:52.572Z,9.00
2024-01-30T16:49:19.935Z,13.53
2024-01-30T16:51:46.764Z,9.03
2024-01-30T16:54:13.616Z,8.50
2024-01-30T16:56:40.654Z,8.53
2024-01-30T16:59:07.335Z,6.77
2024-01-30T17:01:52.916Z,8.40
2024-01-30T17:04:39.856Z,11.87
2024-01-30T17:07:25.138Z,7.47
2024-01-30T17:10:14.386Z,9.20
2024-01-30T17:13:01.233Z,8.40
2024-01-30T17:15:46.738Z,8.67
2024-01-30T17:18:16.872Z,7.23
2024-01-30T17:20:43.706Z,14.20
2024-01-30T17:23:11.665Z,8.20
2024-01-30T17:25:39.546Z,8.23
2024-01-30T17:28:06.655Z,10.10
2024-01-30T17:30:33.564Z,9.23
2024-01-30T17:33:20.892Z,9.10
2024-01-30T17:35:47.957Z,9.03
2024-01-30T17:38:14.765Z,10.77
2024-01-30T17:41:05.894Z,7.30
2024-01-30T17:43:38.919Z,15.27
2024-01-30T17:46:07.758Z,12.63
2024-01-30T17:48:35.167Z,9.40
2024-01-30T17:51:22.981Z,9.90
2024-01-30T17:53:50.536Z,8.10
2024-01-30T17:56:18.888Z,7.77
2024-01-30T17:58:46.933Z,9.33
2024-01-30T18:01:14.053Z,8.50
2024-01-30T18:03:41.434Z,8.90
2024-01-30T18:06:08.270Z,8.67
2024-01-30T18:08:35.611Z,9.93
2024-01-30T18:11:02.625Z,6.40
2024-01-30T18:13:29.515Z,6.73
2024-01-30T18:15:56.628Z,5.30
2024-01-30T18:18:30.328Z,11.83
2024-01-30T18:20:58.629Z,9.30
2024-01-30T18:23:25.657Z,9.83
2024-01-30T18:26:00.597Z,7.87
2024-01-30T18:28:28.579Z,10.70
2024-01-30T18:30:57.737Z,4.40
2024-01-30T18:33:25.242Z,4.57
2024-01-30T18:35:52.163Z,3.40
2024-01-30T18:38:19.018Z,3.47
2024-01-30T18:40:46.207Z,2.80
2024-01-30T18:43:13.180Z,3.40
2024-01-30T18:45:40.005Z,4.20
2024-01-30T18:48:07.059Z,2.67
2024-01-30T18:50:34.574Z,2.63
2024-01-30T18:53:01.323Z,11.00
2024-01-30T18:55:28.079Z,1.90
2024-01-30T18:57:54.864Z,2.00
2024-01-30T19:00:21.980Z,3.07
2024-01-30T19:02:49.188Z,1.60
2024-01-30T19:05:16.070Z,3.63
2024-01-30T19:07:42.864Z,2.53
2024-01-30T19:10:11.125Z,2.00
2024-01-30T19:12:40.524Z,4.23
2024-01-30T19:15:10.495Z,3.00
2024-01-30T19:20:05.376Z,2.20
2024-01-30T19:22:32.357Z,2.33
2024-01-30T19:25:02.059Z,9.20
2024-01-30T19:27:29.098Z,3.23
2024-01-30T19:29:56.104Z,2.23
2024-01-30T19:32:22.998Z,2.10
2024-01-30T19:34:50.638Z,2.00
2024-01-30T19:37:17.518Z,3.33
2024-01-30T19:39:45.057Z,3.37
2024-01-30T19:42:11.977Z,2.20
2024-01-30T19:44:40.047Z,5.90
2024-01-30T19:47:10.379Z,3.13
2024-01-30T19:52:05.199Z,3.37
2024-01-30T19:54:33.912Z,2.90
2024-01-30T19:57:01.750Z,4.40
2024-01-30T19:59:29.286Z,2.67
2024-01-30T20:01:56.265Z,2.80
2024-01-30T20:04:24.743Z,2.00
2024-01-30T20:06:52.038Z,2.77
2024-01-30T20:09:18.826Z,4.33
2024-01-30T20:11:45.645Z,2.90
2024-01-30T20:14:12.543Z,6.40
2024-01-30T20:16:40.480Z,2.97
2024-01-30T20:19:10.803Z,5.00
2024-01-30T20:21:38.205Z,3.63
2024-01-30T20:24:05.709Z,3.83
2024-01-30T20:26:33.103Z,6.40
2024-01-30T20:29:00.549Z,7.73
2024-01-30T20:31:29.181Z,4.10
2024-01-30T20:33:56.159Z,3.53
2024-01-30T20:36:23.457Z,3.50
2024-01-30T20:38:50.194Z,4.57
2024-01-30T20:41:17.022Z,6.17
2024-01-30T20:43:44.396Z,3.50
2024-01-30T20:46:14.143Z,4.37
2024-01-30T20:48:41.714Z,4.30
2024-01-30T20:51:08.518Z,5.90
2024-01-30T20:53:35.324Z,6.03
2024-01-30T20:56:02.128Z,6.37
2024-01-30T20:58:31.915Z,6.03
2024-01-30T21:01:02.356Z,5.00
2024-01-30T21:03:32.472Z,5.90
2024-01-30T21:06:00.673Z,5.70
2024-01-30T21:08:29.194Z,5.80
2024-01-30T21:10:58.839Z,6.40
2024-01-30T21:13:29.240Z,5.13
2024-01-30T21:15:56.871Z,5.90
2024-01-30T21:18:23.617Z,6.47
2024-01-30T21:20:54.279Z,5.33
2024-01-30T21:23:21.141Z,6.30
2024-01-30T21:25:48.166Z,8.23
2024-01-30T21:28:14.988Z,6.30
2024-01-30T21:30:42.208Z,6.43
2024-01-30T21:33:09.208Z,7.70
2024-01-30T21:35:36.050Z,6.93
2024-01-30T21:38:04.967Z,6.20
2024-01-30T21:40:31.799Z,7.10
2024-01-30T21:42:58.829Z,7.67
2024-01-30T21:45:26.146Z,6.20
2024-01-30T21:47:53.602Z,5.33
2024-01-30T21:50:21.210Z,6.10
2024-01-30T21:52:48.125Z,4.30
2024-01-30T21:55:15.105Z,3.27
2024-01-30T21:57:42.075Z,4.23
2024-01-30T22:00:10.700Z,3.47
2024-01-30T22:02:38.076Z,3.77
2024-01-30T22:05:06.093Z,2.90
2024-01-30T22:07:33.278Z,3.63
2024-01-30T22:10:00.599Z,3.87
2024-01-30T22:12:27.626Z,3.07
2024-01-30T22:14:54.474Z,3.30
2024-01-30T22:17:21.297Z,4.33
2024-01-30T22:19:48.429Z,3.00
2024-01-30T22:22:15.573Z,2.40
2024-01-30T22:24:42.416Z,2.40
2024-01-30T22:27:09.310Z,2.27
2024-01-30T22:29:36.144Z,1.90
2024-01-30T22:32:05.524Z,1.53
2024-01-30T22:34:32.407Z,1.73
2024-01-30T22:36:59.271Z,1.53
2024-01-30T22:39:26.534Z,1.47
2024-01-30T22:41:53.647Z,1.30
2024-01-30T22:44:21.884Z,1.00
2024-01-30T22:46:48.783Z,0.83
2024-01-30T22:49:15.778Z,1.53
2024-01-30T22:51:44.147Z,0.70
2024-01-30T22:54:11.016Z,1.20
2024-01-30T22:56:37.782Z,1.90
2024-01-30T22:59:04.708Z,1.43
2024-01-30T23:01:32.708Z,1.90
2024-01-30T23:03:59.702Z,0.80
2024-01-30T23:06:26.744Z,2.63
2024-01-30T23:08:53.809Z,1.47
2024-01-30T23:11:20.785Z,1.73
2024-01-30T23:13:47.696Z,1.67
2024-01-30T23:16:14.611Z,1.70
2024-01-30T23:18:41.794Z,1.70
2024-01-30T23:21:08.738Z,0.90
2024-01-30T23:23:37.692Z,2.00
2024-01-30T23:26:05.312Z,1.50
2024-01-30T23:28:32.489Z,2.47
2024-01-30T23:30:59.370Z,2.60
2024-01-30T23:33:26.420Z,1.10
2024-01-30T23:35:53.302Z,5.33
2024-01-30T23:38:19.986Z,2.30
2024-01-30T23:40:46.914Z,2.93
2024-01-30T23:43:13.879Z,2.13
2024-01-30T23:45:40.678Z,0.87
2024-01-30T23:48:07.989Z,3.77
2024-01-30T23:50:35.468Z,5.23
2024-01-30T23:53:02.276Z,2.10
2024-01-30T23:55:29.169Z,4.07
2024-01-30T23:57:56.174Z,4.50
